LiveATC.Net - Listen to live air traffic control over the Internet!


ICAO: KOGB  IATA: OGB   Airport: Orangeburg Municipal Airport
City: Orangeburg   State/Province: South Carolina
Country: United States   Continent: North America
KOGB METAR Weather: KOGB 251153Z AUTO 00000KT 9SM CLR 15/13 A2997 RMK AO2 SLP146 T01500128 10172 20128 53013
KOGB Flight Activity (FlightAware)
KOGB Webcam:  (Airport Webcams) 
KOGB Airport Info   (iFlightPlanner)
KOGB VFR Sectional Chart   (iFlightPlanner) 
KOGB IFR Low Chart   (iFlightPlanner) 

KOGB CTAF
Feed Status: UP   Listeners: 0
Listen in your browser - HTML5 player (in browser, HTML5)
Click here to listen with your own player (launches your MP3 player)
KOGB CTAF Audio Archives
FacilityFrequency
Orangeburg CTAF122.700

NOTICE

Unauthorized use prohibited. See LiveATC.net Terms of Service


Find LiveATC Audio Streams


Airport/ARTCC Code

Frequency Search
(e.g., 124.400, 128.75)
Site-wide search
 


Browse LiveATC Feeds
Top 50 LiveATC Feeds
LiveATC Feed Map
Bad Weather Areas

LiveATC FAQ
Offer LiveATC feed
Contact LiveATC.net
Press Inquiries

LiveATC on iPhone
LiveATC on Android

Windows Phone
Windows 8/10

LiveATC Mobile
(Mobile browser)

ATC Audio Archives
Interesting Recordings

LiveATC Forums


Home Page
About LiveATC.net
Make a Donation
Terms of Use
Privacy Policy

Canadian Air Freqs

AIRMETs/SIGMETs

FAA Airport Status
Nat'l Airspace Status
Arrival Demand Charts


Server Software By:
Icecast.org
Liquidsoap